createdAt,value
2019-02-09T00:02:17.245Z,84.90
2019-02-09T00:04:47.927Z,84.90
2019-02-09T00:07:17.443Z,84.60
2019-02-09T00:09:48.133Z,84.50
2019-02-09T00:12:18.051Z,84.70
2019-02-09T00:14:47.695Z,84.00
2019-02-09T00:17:17.236Z,83.40
2019-02-09T00:19:47.079Z,83.50
2019-02-09T00:22:16.856Z,83.70
2019-02-09T00:24:46.496Z,83.60
2019-02-09T00:27:16.196Z,83.40
2019-02-09T00:29:49.723Z,83.10
2019-02-09T00:32:19.384Z,82.70
2019-02-09T00:34:48.967Z,82.20
2019-02-09T00:37:18.681Z,82.20
2019-02-09T00:39:48.220Z,81.90
2019-02-09T00:42:17.930Z,82.20
2019-02-09T00:44:47.419Z,82.00
2019-02-09T00:47:17.108Z,82.30
2019-02-09T00:49:46.647Z,81.60
2019-02-09T00:52:16.357Z,81.20
2019-02-09T00:54:45.887Z,80.80
2019-02-09T00:57:15.651Z,81.20
2019-02-09T00:59:45.183Z,81.40
2019-02-09T01:02:15.095Z,80.50
2019-02-09T01:04:44.759Z,80.50
2019-02-09T01:07:15.478Z,80.80
2019-02-09T01:09:45.006Z,80.90
2019-02-09T01:12:14.517Z,80.40
2019-02-09T01:14:44.208Z,80.40
2019-02-09T01:17:13.800Z,80.40
2019-02-09T01:19:43.381Z,80.40
2019-02-09T01:22:13.010Z,81.40
2019-02-09T01:24:42.835Z,80.80
2019-02-09T01:27:12.332Z,80.80
2019-02-09T01:29:41.943Z,81.60
2019-02-09T01:32:11.631Z,82.10
2019-02-09T01:34:41.156Z,82.50
2019-02-09T01:37:10.770Z,82.70
2019-02-09T01:39:40.306Z,82.90
2019-02-09T01:42:09.975Z,82.20
2019-02-09T01:44:39.517Z,82.00
2019-02-09T01:47:09.197Z,82.30
2019-02-09T01:49:40.957Z,82.10
2019-02-09T01:52:10.667Z,81.70
2019-02-09T01:54:40.319Z,81.60
2019-02-09T01:57:10.273Z,81.30
2019-02-09T01:59:41.078Z,81.50
2019-02-09T02:02:14.658Z,80.80
2019-02-09T02:04:44.943Z,80.80
2019-02-09T02:07:14.846Z,80.10
2019-02-09T02:09:44.554Z,80.10
2019-02-09T02:12:14.367Z,79.80
2019-02-09T02:14:44.094Z,79.60
2019-02-09T02:17:14.191Z,79.50
2019-02-09T02:19:44.536Z,79.20
2019-02-09T02:22:14.189Z,80.00
2019-02-09T02:24:43.910Z,80.30
2019-02-09T02:27:13.524Z,80.10
2019-02-09T02:29:43.153Z,80.00
2019-02-09T02:32:12.760Z,79.70
2019-02-09T02:34:43.045Z,79.60
2019-02-09T02:37:12.629Z,79.40
2019-02-09T02:39:46.769Z,79.20
2019-02-09T02:42:17.386Z,79.20
2019-02-09T02:44:47.393Z,79.60
2019-02-09T02:47:17.031Z,79.70
2019-02-09T02:52:28.900Z,79.40
2019-02-09T02:54:58.473Z,79.50
2019-02-09T02:57:28.425Z,79.20
2019-02-09T02:59:58.072Z,78.80
2019-02-09T03:02:27.573Z,78.50
2019-02-09T03:04:57.076Z,78.40
2019-02-09T03:07:26.683Z,78.00
2019-02-09T03:09:56.256Z,78.40
2019-02-09T03:12:26.147Z,77.30
2019-02-09T03:14:55.681Z,77.60
2019-02-09T03:17:25.468Z,78.00
2019-02-09T03:19:55.518Z,78.10
2019-02-09T03:22:25.196Z,77.70
2019-02-09T03:24:54.814Z,77.90
2019-02-09T03:27:26.485Z,77.80
2019-02-09T03:29:56.199Z,77.00
2019-02-09T03:32:27.120Z,76.90
2019-02-09T03:34:56.732Z,76.70
2019-02-09T03:37:27.503Z,76.20
2019-02-09T03:39:57.432Z,76.10
2019-02-09T03:42:26.960Z,75.80
2019-02-09T03:44:56.735Z,75.40
2019-02-09T03:47:26.988Z,75.20
2019-02-09T03:49:56.667Z,74.90
2019-02-09T03:52:26.228Z,74.90
2019-02-09T03:54:56.503Z,75.00
2019-02-09T03:57:26.192Z,74.80
2019-02-09T03:59:55.988Z,74.50
2019-02-09T04:02:25.684Z,74.30
2019-02-09T04:04:55.425Z,74.00
2019-02-09T04:07:25.418Z,74.10
2019-02-09T04:09:55.122Z,73.80
2019-02-09T04:12:25.221Z,73.60
2019-02-09T04:14:54.827Z,73.40
2019-02-09T04:17:24.836Z,73.40
2019-02-09T04:19:54.509Z,73.00
2019-02-09T04:22:24.361Z,72.90
2019-02-09T04:24:54.055Z,72.90
2019-02-09T04:27:23.834Z,72.60
2019-02-09T04:29:53.336Z,72.20
2019-02-09T04:32:23.071Z,72.70
2019-02-09T04:34:52.622Z,72.10
2019-02-09T04:37:23.376Z,71.20
2019-02-09T04:39:52.946Z,71.70
2019-02-09T04:42:23.003Z,71.90
2019-02-09T04:44:53.166Z,71.70
2019-02-09T04:47:22.843Z,71.30
2019-02-09T04:49:52.351Z,71.30
2019-02-09T04:52:22.081Z,71.60
2019-02-09T04:54:52.636Z,70.90
2019-02-09T04:57:22.243Z,71.30
2019-02-09T04:59:52.210Z,71.40
2019-02-09T05:02:21.844Z,70.60
2019-02-09T05:04:51.607Z,70.80
2019-02-09T05:07:21.220Z,70.40
2019-02-09T05:09:51.000Z,70.50
2019-02-09T05:12:20.536Z,69.90
2019-02-09T05:14:50.534Z,69.90
2019-02-09T05:17:20.063Z,69.60
2019-02-09T05:19:50.869Z,70.70
2019-02-09T05:22:20.559Z,70.50
2019-02-09T05:24:50.237Z,70.10
2019-02-09T05:27:19.988Z,69.70
2019-02-09T05:29:50.069Z,70.70
2019-02-09T05:32:19.754Z,70.90
2019-02-09T05:34:49.473Z,71.00
2019-02-09T05:37:19.129Z,70.80
2019-02-09T05:39:48.885Z,70.40
2019-02-09T05:42:19.077Z,70.90
2019-02-09T05:44:48.928Z,70.20
2019-02-09T05:47:18.762Z,70.20
2019-02-09T05:49:48.382Z,71.00
2019-02-09T05:52:18.032Z,70.70
2019-02-09T05:54:47.636Z,70.50
2019-02-09T05:57:17.419Z,69.70
2019-02-09T05:59:47.130Z,69.40
2019-02-09T06:02:16.884Z,68.60
2019-02-09T06:04:46.691Z,70.10
2019-02-09T06:07:16.965Z,68.70
2019-02-09T06:09:49.683Z,68.10
2019-02-09T06:12:19.091Z,68.10
2019-02-09T06:14:48.956Z,67.30
2019-02-09T06:17:18.635Z,67.70
2019-02-09T06:19:48.535Z,67.30
2019-02-09T06:22:18.269Z,67.40
2019-02-09T06:24:48.419Z,66.60
2019-02-09T06:27:18.369Z,65.20
2019-02-09T06:29:47.948Z,67.10
2019-02-09T06:32:17.655Z,65.70
2019-02-09T06:34:47.277Z,64.10
2019-02-09T06:37:16.827Z,65.50
2019-02-09T06:39:46.676Z,66.10
2019-02-09T06:42:16.286Z,67.50
2019-02-09T06:44:45.963Z,68.70
2019-02-09T06:47:15.728Z,70.70
2019-02-09T06:49:45.428Z,73.30
2019-02-09T06:52:15.027Z,76.00
2019-02-09T06:54:44.656Z,78.90
2019-02-09T06:57:14.230Z,82.20
2019-02-09T06:59:43.911Z,84.20
2019-02-09T07:02:13.666Z,86.60
2019-02-09T07:04:43.513Z,87.90
2019-02-09T07:07:13.100Z,89.10
2019-02-09T07:09:42.652Z,89.70
2019-02-09T07:12:12.446Z,90.00
2019-02-09T07:14:42.047Z,90.10
2019-02-09T07:17:11.794Z,90.50
2019-02-09T07:19:41.774Z,90.70
2019-02-09T07:22:11.614Z,91.10
2019-02-09T07:24:41.345Z,91.00
2019-02-09T07:27:11.620Z,91.00
2019-02-09T07:29:41.313Z,91.10
2019-02-09T07:32:14.635Z,91.00
2019-02-09T07:34:44.276Z,90.90
2019-02-09T07:37:13.886Z,90.70
2019-02-09T07:39:43.671Z,90.40
2019-02-09T07:42:13.351Z,90.40
2019-02-09T07:44:43.184Z,90.40
2019-02-09T07:47:12.905Z,90.30
2019-02-09T07:49:42.918Z,90.20
2019-02-09T07:52:12.596Z,90.10
2019-02-09T07:54:42.875Z,90.10
2019-02-09T07:57:12.495Z,90.00
2019-02-09T07:59:42.459Z,89.90
2019-02-09T08:02:12.114Z,89.60
2019-02-09T08:04:42.922Z,88.70
2019-02-09T08:07:12.675Z,88.70
2019-02-09T08:09:42.516Z,88.40
2019-02-09T08:12:13.183Z,87.90
2019-02-09T08:14:42.918Z,87.70
2019-02-09T08:17:12.479Z,88.20
2019-02-09T08:19:42.311Z,87.60
2019-02-09T08:22:11.928Z,85.70
2019-02-09T08:24:41.501Z,83.00
2019-02-09T08:27:11.470Z,82.00
2019-02-09T08:29:41.122Z,80.70
2019-02-09T08:32:12.781Z,79.80
2019-02-09T08:34:43.058Z,79.60
2019-02-09T08:37:12.728Z,74.90
2019-02-09T08:39:42.482Z,73.20
2019-02-09T08:42:12.212Z,71.60
2019-02-09T08:44:42.162Z,71.30
2019-02-09T08:47:11.802Z,72.00
2019-02-09T08:49:41.476Z,72.70
2019-02-09T08:52:11.326Z,73.40
2019-02-09T08:54:41.103Z,73.90
2019-02-09T08:57:10.750Z,72.80
2019-02-09T08:59:40.587Z,72.30
2019-02-09T09:02:10.419Z,69.80
2019-02-09T09:04:41.067Z,66.30
2019-02-09T09:07:10.813Z,64.50
2019-02-09T09:09:41.214Z,61.20
2019-02-09T09:12:10.937Z,58.80
2019-02-09T09:14:40.619Z,59.10
2019-02-09T09:17:10.345Z,56.30
2019-02-09T09:19:39.988Z,55.20
2019-02-09T09:22:09.796Z,53.00
2019-02-09T09:24:39.369Z,51.30
2019-02-09T09:27:09.312Z,49.20
2019-02-09T09:29:38.926Z,47.50
2019-02-09T09:32:12.332Z,47.40
2019-02-09T09:34:41.940Z,48.40
2019-02-09T09:37:11.723Z,47.60
2019-02-09T09:39:41.411Z,47.40
2019-02-09T09:42:11.668Z,47.30
2019-02-09T09:44:41.376Z,47.30
2019-02-09T09:47:11.182Z,49.10
2019-02-09T09:49:40.845Z,51.70
2019-02-09T09:52:10.930Z,53.10
2019-02-09T09:54:40.565Z,55.50
2019-02-09T09:57:10.258Z,57.50
2019-02-09T09:59:39.931Z,58.30
2019-02-09T10:02:09.660Z,58.40
2019-02-09T10:04:39.460Z,58.20
2019-02-09T10:07:09.175Z,57.70
2019-02-09T10:09:38.774Z,56.80
2019-02-09T10:12:08.500Z,56.30
2019-02-09T10:14:38.078Z,57.30
2019-02-09T10:17:07.965Z,55.30
2019-02-09T10:19:37.795Z,54.70
2019-02-09T10:22:07.867Z,54.30
2019-02-09T10:24:38.582Z,53.30
2019-02-09T10:27:08.421Z,52.80
2019-02-09T10:29:38.204Z,53.30
2019-02-09T10:32:08.437Z,51.10
2019-02-09T10:34:38.354Z,50.70
2019-02-09T10:37:08.067Z,50.90
2019-02-09T10:39:37.768Z,49.60
2019-02-09T10:42:07.479Z,48.60
2019-02-09T10:44:37.289Z,47.80
2019-02-09T10:47:07.106Z,47.60
2019-02-09T10:49:37.031Z,49.90
2019-02-09T10:52:06.858Z,46.70
2019-02-09T10:54:36.711Z,46.20
2019-02-09T10:57:06.642Z,46.20
2019-02-09T10:59:36.814Z,44.70
2019-02-09T11:02:06.900Z,46.00
2019-02-09T11:04:38.323Z,42.70
2019-02-09T11:07:08.839Z,43.00
2019-02-09T11:09:38.534Z,40.00
2019-02-09T11:12:08.551Z,40.50
2019-02-09T11:14:38.260Z,39.20
2019-02-09T11:17:08.181Z,38.60
2019-02-09T11:19:37.890Z,38.00
2019-02-09T11:22:07.770Z,37.80
2019-02-09T11:24:37.408Z,38.40
2019-02-09T11:27:07.492Z,38.60
2019-02-09T11:29:37.554Z,39.40
2019-02-09T11:32:07.207Z,38.80
2019-02-09T11:34:36.829Z,39.80
2019-02-09T11:37:06.428Z,40.40
2019-02-09T11:39:36.179Z,41.50
2019-02-09T11:42:05.956Z,43.00
2019-02-09T11:44:41.051Z,44.80
2019-02-09T11:47:07.163Z,46.50
2019-02-09T11:49:36.948Z,47.80
2019-02-09T11:52:06.703Z,49.40
2019-02-09T11:54:36.678Z,50.30
2019-02-09T11:57:06.307Z,52.00
2019-02-09T11:59:36.109Z,52.40
2019-02-09T12:02:06.135Z,53.30
2019-02-09T12:04:35.829Z,54.00
2019-02-09T12:07:05.767Z,54.60
2019-02-09T12:09:35.408Z,54.70
2019-02-09T12:12:05.515Z,55.60
2019-02-09T12:14:35.358Z,56.60
2019-02-09T12:17:05.478Z,57.80
2019-02-09T12:19:35.532Z,58.00
2019-02-09T12:22:05.537Z,57.50
2019-02-09T12:24:35.297Z,58.30
2019-02-09T12:27:05.143Z,58.70
2019-02-09T12:29:34.775Z,59.10
2019-02-09T12:32:04.767Z,59.60
2019-02-09T12:34:34.843Z,58.70
2019-02-09T12:37:04.923Z,60.10
2019-02-09T12:39:34.744Z,60.20
2019-02-09T12:42:04.486Z,59.30
2019-02-09T12:44:35.239Z,59.30
2019-02-09T12:47:05.065Z,59.20
2019-02-09T12:49:34.868Z,59.20
2019-02-09T12:52:04.789Z,59.30
2019-02-09T12:54:36.439Z,58.80
2019-02-09T12:57:06.463Z,58.80
2019-02-09T12:59:36.284Z,58.40
2019-02-09T13:02:06.070Z,58.30
2019-02-09T13:04:35.897Z,58.50
2019-02-09T13:07:05.683Z,58.60
2019-02-09T13:09:35.567Z,58.60
2019-02-09T13:12:06.335Z,59.10
2019-02-09T13:14:36.074Z,59.70
2019-02-09T13:17:06.301Z,59.30
2019-02-09T13:19:35.955Z,59.40
2019-02-09T13:22:06.006Z,60.00
2019-02-09T13:24:35.939Z,60.40
2019-02-09T13:27:05.857Z,60.70
2019-02-09T13:29:35.659Z,61.40
2019-02-09T13:32:05.571Z,62.10
2019-02-09T13:34:35.384Z,61.30
2019-02-09T13:40:08.955Z,62.00
2019-02-09T13:42:57.520Z,62.90
2019-02-09T14:52:11.376Z,68.00
2019-02-09T14:54:46.089Z,67.20
2019-02-09T14:57:28.869Z,67.00
2019-02-09T15:05:10.792Z,66.60
2019-02-09T15:07:40.487Z,66.50
2019-02-09T15:10:12.183Z,65.90
2019-02-09T15:12:41.880Z,66.50
2019-02-09T15:15:33.399Z,66.90
2019-02-09T15:18:06.850Z,66.20
2019-02-09T15:20:38.783Z,66.70
2019-02-09T15:23:10.682Z,66.80
2019-02-09T15:25:40.412Z,66.90
2019-02-09T15:28:12.442Z,68.30
2019-02-09T15:30:41.760Z,67.90
2019-02-09T15:33:11.503Z,67.60
2019-02-09T15:35:41.794Z,68.00
2019-02-09T15:38:12.706Z,67.80
2019-02-09T15:40:42.257Z,67.80
2019-02-09T15:43:13.143Z,69.60
2019-02-09T15:45:42.698Z,68.20
2019-02-09T15:48:12.521Z,68.90
2019-02-09T15:50:42.107Z,70.00
2019-02-09T15:53:12.563Z,69.60
2019-02-09T15:55:42.451Z,69.70
2019-02-09T15:58:13.055Z,70.10
2019-02-09T16:00:42.855Z,70.90
2019-02-09T16:03:13.223Z,70.30
2019-02-09T16:05:43.062Z,70.90
2019-02-09T16:08:13.183Z,70.80
2019-02-09T16:10:42.844Z,70.50
2019-02-09T16:13:13.705Z,69.90
2019-02-09T16:15:43.587Z,71.10
2019-02-09T16:18:13.969Z,70.70
2019-02-09T16:20:43.743Z,71.70
2019-02-09T16:23:14.577Z,71.40
2019-02-09T16:25:44.430Z,71.90
2019-02-09T16:28:14.887Z,72.20
2019-02-09T16:30:45.181Z,71.10
2019-02-09T16:33:14.895Z,71.40
2019-02-09T16:35:45.075Z,71.90
2019-02-09T16:38:15.401Z,71.40
2019-02-09T16:40:45.209Z,72.00
2019-02-09T16:45:50.748Z,73.40
2019-02-09T16:48:20.330Z,72.90
2019-02-09T16:50:50.076Z,73.70
2019-02-09T16:53:19.726Z,74.90
2019-02-09T16:55:50.460Z,75.50
2019-02-09T16:58:20.047Z,75.30
2019-02-09T17:00:49.788Z,76.10
2019-02-09T17:03:19.417Z,77.00
2019-02-09T17:05:49.051Z,76.80
2019-02-09T17:08:18.741Z,76.90
2019-02-09T17:10:48.349Z,77.40
2019-02-09T17:13:17.992Z,77.50
2019-02-09T17:15:47.808Z,78.20
2019-02-09T17:18:17.576Z,78.80
2019-02-09T17:20:47.251Z,78.80
2019-02-09T17:23:17.010Z,79.20
2019-02-09T17:25:46.559Z,79.70
2019-02-09T17:28:16.527Z,79.40
2019-02-09T17:30:46.030Z,79.90
2019-02-09T17:33:15.978Z,80.40
2019-02-09T17:35:45.736Z,80.30
2019-02-09T17:38:15.360Z,80.60
2019-02-09T17:40:46.722Z,80.70
2019-02-09T17:43:16.668Z,81.30
2019-02-09T17:45:55.200Z,81.30
2019-02-09T17:48:25.058Z,81.90
2019-02-09T17:50:55.985Z,82.20
2019-02-09T17:53:25.607Z,82.20
2019-02-09T17:55:55.256Z,81.70
2019-02-09T17:58:25.067Z,82.20
2019-02-09T18:00:58.479Z,82.70
2019-02-09T18:03:28.347Z,82.80
2019-02-09T18:05:58.008Z,83.00
2019-02-09T18:08:27.703Z,82.40
2019-02-09T18:10:57.746Z,82.70
2019-02-09T18:13:27.606Z,82.60
2019-02-09T18:15:57.339Z,82.60
2019-02-09T18:18:26.949Z,82.30
2019-02-09T18:20:56.932Z,82.80
2019-02-09T18:23:26.761Z,82.60
2019-02-09T18:25:56.527Z,82.30
2019-02-09T18:28:27.119Z,82.50
2019-02-09T18:30:59.276Z,82.20
2019-02-09T18:33:28.842Z,82.10
2019-02-09T18:35:58.688Z,81.90
2019-02-09T18:38:29.343Z,82.30
2019-02-09T18:40:59.283Z,82.70
2019-02-09T18:43:28.997Z,82.10
2019-02-09T18:48:41.037Z,81.40
2019-02-09T18:51:10.692Z,81.30
2019-02-09T18:53:40.189Z,81.80
2019-02-09T18:56:09.938Z,81.00
2019-02-09T18:58:39.524Z,81.10
2019-02-09T19:01:09.083Z,81.20
2019-02-09T19:03:38.782Z,81.20
2019-02-09T19:06:08.546Z,81.00
2019-02-09T19:08:38.263Z,80.90
2019-02-09T19:11:07.861Z,80.50
2019-02-09T19:13:38.561Z,80.10
2019-02-09T19:16:08.471Z,80.10
2019-02-09T19:18:38.338Z,80.20
2019-02-09T19:21:12.385Z,80.20
2019-02-09T19:23:42.156Z,80.20
2019-02-09T19:26:11.908Z,79.50
2019-02-09T19:28:41.607Z,78.80
2019-02-09T19:31:11.539Z,79.90
2019-02-09T19:33:41.346Z,79.10
2019-02-09T19:36:11.811Z,78.90
2019-02-09T19:38:42.528Z,78.70
2019-02-09T19:41:12.104Z,78.30
2019-02-09T19:43:41.745Z,78.60
2019-02-09T19:46:11.703Z,78.40
2019-02-09T19:48:41.783Z,79.00
2019-02-09T19:51:11.651Z,78.80
2019-02-09T19:53:41.315Z,78.50
2019-02-09T19:56:12.144Z,78.70
2019-02-09T19:58:42.244Z,78.20
2019-02-09T20:01:12.069Z,78.70
2019-02-09T20:03:42.498Z,79.00
2019-02-09T20:06:12.424Z,78.60
2019-02-09T20:08:43.483Z,78.40
2019-02-09T20:11:13.480Z,78.70
2019-02-09T20:13:43.356Z,78.30
2019-02-09T20:16:13.037Z,78.00
2019-02-09T20:18:42.709Z,78.80
2019-02-09T20:21:12.332Z,78.30
2019-02-09T20:23:44.066Z,78.30
2019-02-09T20:26:13.667Z,78.80
2019-02-09T20:28:43.379Z,77.50
2019-02-09T20:31:13.271Z,78.50
2019-02-09T20:33:45.975Z,77.60
2019-02-09T20:36:15.822Z,78.10
2019-02-09T20:38:45.639Z,77.90
2019-02-09T20:41:15.300Z,77.40
2019-02-09T20:46:27.519Z,77.50
2019-02-09T20:48:57.974Z,77.50
2019-02-09T20:51:27.581Z,77.10
2019-02-09T20:59:12.208Z,77.10
2019-02-09T21:01:41.756Z,77.00
2019-02-09T21:04:11.430Z,77.40
2019-02-09T21:06:41.009Z,76.80
2019-02-09T21:11:54.088Z,77.30
2019-02-09T21:14:23.914Z,77.40
2019-02-09T21:16:53.592Z,77.50
2019-02-09T21:19:23.256Z,77.50
2019-02-09T21:21:52.807Z,77.90
2019-02-09T21:24:22.526Z,77.40
2019-02-09T21:26:52.075Z,77.80
2019-02-09T21:29:22.328Z,77.50
2019-02-09T21:31:51.872Z,77.80
2019-02-09T21:34:21.487Z,77.60
2019-02-09T21:36:51.202Z,78.50
2019-02-09T21:39:20.857Z,77.80
2019-02-09T21:41:50.505Z,77.90
2019-02-09T21:44:21.061Z,78.20
2019-02-09T21:46:50.733Z,77.00
2019-02-09T21:49:21.266Z,77.00
2019-02-09T21:51:51.128Z,77.10
2019-02-09T21:54:21.635Z,77.50
2019-02-09T21:56:52.088Z,77.30
2019-02-09T21:59:22.895Z,77.00
2019-02-09T22:01:52.558Z,77.70
2019-02-09T22:04:22.161Z,77.50
2019-02-09T22:06:51.834Z,77.50
2019-02-09T22:09:21.514Z,77.40
2019-02-09T22:11:51.116Z,78.20
2019-02-09T22:14:20.933Z,77.50
2019-02-09T22:19:33.537Z,77.80
2019-02-09T22:22:03.317Z,78.30
2019-02-09T22:24:33.150Z,77.50
2019-02-09T22:27:02.973Z,77.60
2019-02-09T22:29:32.715Z,78.30
2019-02-09T22:32:02.353Z,78.00
2019-02-09T22:34:32.899Z,77.90
2019-02-09T22:37:02.583Z,77.60
2019-02-09T22:39:32.166Z,78.00
2019-02-09T22:42:01.832Z,77.70
2019-02-09T22:44:32.392Z,77.60
2019-02-09T22:47:03.097Z,78.00
2019-02-09T22:49:32.646Z,78.50
2019-02-09T22:52:02.395Z,77.70
2019-02-09T22:54:32.010Z,77.30
2019-02-09T22:57:01.666Z,78.50
2019-02-09T22:59:31.165Z,78.90
2019-02-09T23:02:01.222Z,77.50
2019-02-09T23:05:24.035Z,77.40
2019-02-09T23:07:53.745Z,78.30
2019-02-09T23:10:23.622Z,78.40
2019-02-09T23:12:53.321Z,78.30
2019-02-09T23:15:24.019Z,78.30
2019-02-09T23:17:53.623Z,78.30
2019-02-09T23:20:23.194Z,78.40
2019-02-09T23:22:53.153Z,78.60
2019-02-09T23:25:22.847Z,78.30
2019-02-09T23:27:52.593Z,78.40
2019-02-09T23:30:22.476Z,78.20
2019-02-09T23:32:52.403Z,78.40
2019-02-09T23:35:22.210Z,78.40
2019-02-09T23:37:51.919Z,78.40
2019-02-09T23:43:04.505Z,78.50
2019-02-09T23:45:34.252Z,78.50
2019-02-09T23:48:07.922Z,78.60
2019-02-09T23:53:13.411Z,78.20
2019-02-09T23:55:42.927Z,77.90
2019-02-09T23:58:12.839Z,78.20
